LiveATC.Net - Listen to live air traffic control over the Internet!

Airport/ARTCC Code
Frequency Search
(e.g., 124.400, 128.75)
Site-wide search
 


Browse Feeds
Top 50 Feeds
HF Oceanic Feeds
Coverage Map
Bad Weather Areas

LiveATC FAQ
Offer LiveATC feed
Contact LiveATC.net
Press Inquiries

LiveATC on iPhone
LiveATC on Android

LiveATC Mobile
(Mobile browser)

ATC Audio Archives
Interesting Recordings

LiveATC Forums

Home Page
About LiveATC.net
Make a Donation
Terms of Use
Privacy Policy

Canadian Air Freqs

AIRMETs/SIGMETs

FAA Airport Status
NAS Status
Arrival Demand


Server Software By:
Icecast.org
Liquidsoap


Current Potentially Bad Weather Airports
(updated every 30 minutes - sorted alphabetically by ICAO code)



This page lists LiveATC.net airport areas that may be interesting to listen to because of challenging flying (weather) conditions. Challenging weather conditions include low ceilings, limited visibility, high or gusty winds, or thunderstorms.

Updated: Mon Jan 24 05:40:01 UTC 2022
Click on airport name to go to that airport area's feeds.

CYEG Approach Edmonton International Airport (Edmonton, CA-AB)
WX MAP UNAVAILABLENearest METAR:
CYEG 240521Z 29007KT 20SM -SN FEW037 BKN077 OVC100 02/00 A2996 RMK SC2AC4AC2 SLP174
CYFB CTAF/RDO Iqaluit Airport (Iqaluit, CA-NU)
WX MAP UNAVAILABLENearest METAR:
CYFB 240500Z 32013KT 6SM -SN VV045 M24/M27 A2941 RMK SN8 SLP964
CYQI Moncton Center Low/High Yarmouth Airport (Yarmouth, CA-NS)
WX MAP UNAVAILABLENearest METAR:
CYQI 240520Z 31006KT 1 1/2SM -SN OVC004 M01/M01 A2975 RMK SF8 SLP078
CYQT Ground/Tower Thunder Bay Airport (Thunder Bay, CA-ON)
cyqtNearest METAR:
CYQT 240504Z 23004KT 10SM -SN OVC049 M17/M21 A2973 RMK SC8 SLP090
CYWH FISE/Terminal Victoria Inner Harbour Airport (Victoria, CA-BC)
cywhNearest METAR:
CYWH 240500Z 32003KT 8SM OVC007 04/03 A3034 RMK ST8 LAST STFD OBS/ NEXT 241400Z SLP275
CYZX App/Dep/PAR CFB Greenwood Airport (Greenwood, CA-NS)
WX MAP UNAVAILABLENearest METAR:
CYZX 240500Z 32003KT 1 1/2SM -SHSN BR OVC015 M03/M03 A2977 RMK SN4SC4 VIS VRB 1-2 /S03/ SLP084
EFJY Tower Jyvaskyla Airport (Jyvaskyla, Finland)
WX MAP UNAVAILABLENearest METAR:
EFJY 240520Z AUTO 21011KT 9999 OVC004 00/M00 Q1012
ENBO Approach Bodo Airport (Bodo, Norway)
WX MAP UNAVAILABLENearest METAR:
ENBO 240520Z 26037G52KT 2500 SN SCT006 BKN022 BKN072 02/00 Q0995
ENGM App/Polaris ACC Eggemoen Airport (Honefoss, Norway)
WX MAP UNAVAILABLENearest METAR:
ENGM 240520Z VRB02KT 1000 0550SW R19R/P2000N R01R/1200U R19L/0900U R01L/0800N FZFG SCT001 M06/M07 Q1017 TEMPO 4000 BCFG
ENEV Twr/App/ACC Harstad/Narvik Airport (Evenes, Norway)
WX MAP UNAVAILABLENearest METAR:
ENEV 240520Z 27007KT 200V340 8000 -DZ VV016 01/M00 Q0989 RESHRASN RMK WIND 1400FT 24024G41KT
EPGD Tower/Approach Gdansk Lech Walesa Airport (Gdansk, Poland)
WX MAP UNAVAILABLENearest METAR:
EPGD 240500Z 22007KT 9999 OVC004 01/00 Q1030
EPWR Twr/App Strachowice Airport (Wroclaw, Poland)
WX MAP UNAVAILABLENearest METAR:
EPWR 240500Z 13005KT 5000 -DZ BR OVC003 00/M00 Q1034
ESDF Ronneby Control Ronneby Airport (Ronneby, Sweden)
WX MAP UNAVAILABLENearest METAR:
ESDF 240520Z 26006KT 9999 -DZ OVC005 05/05 Q1028
FMEP Info Pierrefonds Airport (Saint-Pierre, Reunion)
WX MAP UNAVAILABLENearest METAR:
FMEP 240500Z AUTO 11020KT 9999 FEW015/// SCT021/// BKN027/// ///CB 27/23 Q1013 TEMPO 3500 SHRA BECMG 12025G35KT
ZBW Boston Center (ALB22) General Edward Lawrence Logan International Airport (Boston, US-MA)
kbosNearest METAR:
KBOS 240454Z 30004KT 3SM -SN BR SCT025 OVC050 M02/M04 A2980 RMK AO2 SLP090 P0001 T10221044 400171072 $
KANE Twr/CTAF Anoka County-Blaine Airport (Janes Field) (Minneapolis, US-MN)
kaneNearest METAR:
KANE 240515Z AUTO 13005KT 7SM -SN OVC025 M14/M16 A2964 RMK AO2
KAVP Gnd/Twr/App Wilkes-Barre/Scranton International Airport (Wilkes-Barre/Scranton, US-PA)
kavpNearest METAR:
KAVP 240525Z 34013KT 6SM -SN BKN016 BKN020 OVC038 M04/M08 A2976 RMK AO2 P0000 T10441078 $
KAWO CTAF/Clearance Arlington Municipal Airport (Arlington, US-WA)
kawoNearest METAR:
KAWO 240525Z AUTO 01003KT 3SM BR OVC002 03/02 A3034 RMK AO2 PNO $
KBFI Ground/Tower Boeing Field/King County International Airport (Seattle, US-WA)
kbfiNearest METAR:
KBFI 240453Z 00000KT 3SM BR OVC006 03/03 A3034 RMK AO2 SLP273 T00330028
KBGM Del/Gnd/Twr/App Greater Binghamton Airport/Edwin A Link Field (Binghamton, US-NY)
WX MAP UNAVAILABLENearest METAR:
KBGM 240453Z AUTO 33009KT 3SM -SN BR BKN010 OVC030 M10/M11 A2975 RMK AO2 SLP102 P0000 T11001111 410441100
KBID CTAF Block Island State Airport (Block Island, US-RI)
kbidNearest METAR:
KBID 240456Z AUTO 32007KT 8SM -SN SCT020 BKN070 OVC085 M01/M05 A2980 RMK AO2 UPE0357SNB0357 SLP093 P0000 T10111050 FZRANO
KBIS Twr/App Bismarck Municipal Airport (Bismarck, US-ND)
kbisNearest METAR:
KBIS 240452Z 30012G21KT 10SM UP OVC009 02/01 A2965 RMK AO2 RAE51UPB51 SLP064 P0002 T00170006
MA/NH/RI/CT Area CTAF Hopedale Industrial Park Airport (Hopedale, US-MA)
koreNearest METAR:
KORE 240524Z AUTO 00000KT 1/4SM FZFG VV003 M07/M09 A2978 RMK AO2 T10721089
KBUF Gnd/Twr/App Buffalo Niagara International Airport (Buffalo, US-NY)
kbufNearest METAR:
KBUF 240507Z 35004KT 9SM -SN BKN025 OVC036 M12/M16 A2991 RMK AO2 P0000 T11171161 $
KCAK Del/Gnd/Twr/App Akron-Canton Regional Airport (Akron, US-OH)
kcakNearest METAR:
KCAK 240451Z 01004KT 9SM -SN OVC036 M08/M11 A2990 RMK AO2 SLP141 P0000 T10781111 410281083 $
KCLM Del/CTAF/App William R Fairchild International Airport (Port Angeles, US-WA)
kclmNearest METAR:
KCLM 240453Z AUTO 16005KT 6SM BR OVC003 04/02 A3033 RMK AO2 SLP273 T00390022
KCOE CTAF Coeur d'Alene Airport - Pappy Boyington Field (Coeur d'Alene, US-ID)
kcoeNearest METAR:
KCOE 240456Z AUTO 00000KT 1/4SM FZFG OVC001 M02/M02 A3026 RMK AO2 SLP292 T10171022 FZRANO PNO $
KCVO CTAF/Misc Corvallis Municipal Airport (Corvallis, US-OR)
kcvoNearest METAR:
KCVO 240456Z AUTO 00000KT 1/4SM FG OVC002 01/01 A3033 RMK AO2 SLP273 T00110006 FZRANO RVRNO
KDLH Gnd/Twr/App Duluth International Airport (Duluth, US-MN)
kdlhNearest METAR:
KDLH 240455Z 16003KT 7SM -SN OVC046 M17/M20 A2964 RMK AO2 SLP079 PCPN VRY LGT P0000 T11721200 $
KEST CTAF Estherville Municipal Airport (Estherville, US-IA)
kestNearest METAR:
KEST 240517Z AUTO 20009KT 2 1/2SM -SN BR OVC038 M08/M09 A2962 RMK AO2 P0000 T10781094 $
KFCM Tower Flying Cloud Airport (Minneapolis, US-MN)
kfcmNearest METAR:
KFCM 240515Z AUTO 09006KT 2 1/2SM -SN BR BKN021 BKN027 OVC035 M13/M16 A2964 RMK AO2 P0000 T11331156
KGEG Del/Gnd/Twr/App Spokane International Airport (Spokane, US-WA)
kgegNearest METAR:
KGEG 240453Z 00000KT 1/4SM R21/2400V2800FT FZFG VV002 M01/M02 A3025 RMK AO2 SFC VIS 1/2 SLP270 I1000 T10061022
KHRL Gnd/Twr/App Valley International Airport (Harlingen, US-TX)
khrlNearest METAR:
KHRL 240452Z 34004KT 3SM -RA BR OVC003 12/11 A3006 RMK AO2 SLP179 P0002 T01170111 $
KHTO CTAF/Tower East Hampton Airport (East Hampton, US-NY)
khtoNearest METAR:
KHTO 240515Z AUTO 00000KT 7SM -SN SCT060 BKN070 OVC090 M02/M02 A2980 RMK AO2 T10161025
KISP (NY Approach) Long Island Mac Arthur Airport (Islip, US-NY)
kispNearest METAR:
KISP 240456Z 28003KT 7SM -SN FEW040 OVC055 M01/M03 A2979 RMK AO2 SLP089 LAST P0000 T10111028 400221078
KLFI Del/Gnd/Twr Langley Air Force Base (Hampton, US-VA)
klfiNearest METAR:
KLFI 240456Z 24010KT 10SM CLR 02/M03 A2983 RMK AO2A SLPNO T00221031 400501080 RVRNO VISNO RWY08 $
KMFE Gnd/Twr Mc Allen Miller International Airport (Mc Allen, US-TX)
kmfeNearest METAR:
KMFE 240453Z 31003KT 3SM BR OVC005 11/11 A3009 RMK AO2 RAB0357E30 CIG 003V009 SLP187 P0001 T01060106
KMIC ATIS Crystal Airport (Minneapolis, US-MN)
kmicNearest METAR:
KMIC 240526Z AUTO 13005KT 2 1/2SM -SN OVC025 M14/M17 A2964 RMK AO2 P0000 T11391167
KMLI Del/Gnd/Twr/App Quad City International Airport (Moline, US-IL)
kmliNearest METAR:
KMLI 240452Z AUTO 20005KT 4SM -SN SCT025 OVC036 M08/M12 A2986 RMK AO2 SNB10 SLP122 P0000 T10781117 $
KMSN Twr/App Dane County Regional Airport-Truax Field (Madison, US-WI)
kmsnNearest METAR:
KMSN 240453Z VRB05KT 9SM -SN OVC047 M12/M17 A2982 RMK AO2 SNB26 SLP118 LAST P0000 T11221172
KMSP Approach (121.2) Minneapolis-St Paul International/Wold-Chamberlain Airport (Minneapolis, US-MN)
kmspNearest METAR:
KMSP 240526Z 13008KT 2 1/2SM -SN BR FEW023 OVC032 M14/M16 A2965 RMK AO2 VIS 1V5 P0001 T11391161
KSTP Tower St. Paul Downtown Airport / Holman Field (Saint Paul, US-MN)
kstpNearest METAR:
KSTP 240453Z AUTO 13006KT 3SM -SN BR SCT020 OVC040 M14/M16 A2970 RMK AO2 SLP072 P0000 T11391161
Seattle App/Dep Olympia Regional Airport (Olympia, US-WA)
kolmNearest METAR:
KOLM 240454Z AUTO 07003KT 4SM BR OVC003 04/03 A3033 RMK AO2 SLP273 T00440028
KOWD Ground/Tower Norwood Municipal Airport (Norwood, US-MA)
kowdNearest METAR:
KOWD 240453Z AUTO 00000KT 5SM -SN OVC060 M02/M05 A2980 RMK AO2 SLP090 P0000 T10171050 400281122
KPAE Gnd/Twr/App Snohomish County Airport (Paine Field) (Everett, US-WA)
kpaeNearest METAR:
KPAE 240500Z AUTO 36003KT 1/4SM R16R/1000V1200FT FG VV001 03/03 A3032 RMK AO2 T00280028
KPDT Gnd/Twr/App Eastern Oregon Regional Airport at Pendleton (Pendleton, US-OR)
kpdtNearest METAR:
KPDT 240525Z AUTO 00000KT 1/4SM R26/2000V2200FT FZFG VV002 M01/M02 A3032 RMK AO2 I1000 T10061022 $
KVUO CTAF/Guard Pearson Field Airport (Vancouver, US-WA)
kvuoNearest METAR:
KVUO 240453Z AUTO 00000KT 1/4SM FG VV002 01/01 A3033 RMK AO2 SLP270 T00110006 $
KPIT App/Dep #1 Pittsburgh International Airport (Pittsburgh, US-PA)
kpitNearest METAR:
KPIT 240527Z 29006KT 10SM -SN SCT015 BKN038 M09/M12 A2987 RMK AO2 SNB27 P0000 T10941117 $
KPLU Del/CTAF/App Pierce County Airport - Thun Field (Puyallup, US-WA)
kpluNearest METAR:
KPLU 240515Z AUTO 00000KT M1/4SM FG OVC002 02/02 A3032 RMK AO2
KPVC CTAF Provincetown Municipal Airport (Provincetown, US-MA)
kpvcNearest METAR:
KPVC 240528Z AUTO 30010KT 5SM -SN BR SCT017 BKN026 OVC030 M01/M03 A2979 RMK AO2 UPE05SNB05 P0000 FZRANO
KPVD Clearance Delivery Theodore Francis Green State Airport (Providence, US-RI)
kpvdNearest METAR:
KPVD 240451Z 29004KT 10SM -SN BKN085 OVC100 M02/M06 A2980 RMK AO2 SLP092 P0000 T10171061 400281094 $
KPWT CTAF Bremerton National Airport (Bremerton, US-WA)
kpwtNearest METAR:
KPWT 240456Z AUTO 02003KT 4SM BR OVC002 03/03 A3033 RMK AO2 SLP278 T00280028
KRDG Gnd/Twr/App Reading Regional Airport/Carl A Spaatz Field (Reading, US-PA)
krdgNearest METAR:
KRDG 240510Z AUTO 00000KT 1 1/2SM BR FEW060 BKN100 M03/M04 A2979 RMK AO2 I1000 T10281039
KRNH CTAF/Clearance New Richmond Regional Airport (New Richmond, US-WI)
krnhNearest METAR:
KRNH 240515Z AUTO 15005KT 7SM -SN SCT001 SCT032 M15/M18 A2966 RMK AO2 T11501181
KRNT Gnd/Twr/Unicom Renton Municipal Airport (Renton, US-WA)
krntNearest METAR:
KRNT 240453Z AUTO 05004KT 7SM OVC004 03/02 A3034 RMK AO2 SLP278 T00280017
KRST Gnd/Twr/App Rochester International Airport (Rochester, US-MN)
krstNearest METAR:
KRST 240505Z AUTO 19014KT 1 1/2SM -SN BKN020 OVC033 M13/M16 A2965 RMK AO2 P0000 T11281156
KSEA Air-to-Air Seattle-Tacoma International Airport (Seattle, US-WA)
kseaNearest METAR:
KSEA 240453Z 04004KT 1/4SM R16L/2000V3500FT FG VV001 02/02 A3032 RMK AO2 SLP277 T00220022
KSUN Ground/Tower Friedman Memorial Airport (Hailey, US-ID)
ksunNearest METAR:
KSUN 240515Z AUTO 00000KT 1/2SM FZFG OVC002 M09/M10 A3029 RMK AO2
KSYR Tower/Approach Syracuse Hancock International Airport (Syracuse, US-NY)
WX MAP UNAVAILABLENearest METAR:
KSYR 240454Z 26008KT 7SM -SN FEW032 OVC044 M07/M11 A2986 RMK AO2 SLP114 P0000 T10721106 410171078 $
KTAN CTAF Taunton Municipal Airport (Taunton, US-MA)
ktanNearest METAR:
KTAN 240514Z AUTO 00000KT 3SM -SN OVC037 M02/M05 A2979 RMK AO2 P0000 T10221050
KTCM Gnd/Twr/Misc McChord Field Airport (Joint Base Lewis-McChord) (Tacoma, US-WA)
ktcmNearest METAR:
KTCM 240458Z AUTO 00000KT 3SM BR OVC003 03/03 A3033 RMK AO2 VIS 2 1/2 RWY16/34 VIS 2 RWY34 CIG 002 RWY34 SLP277 T00280028 RVRNO $
LFLL Tower Lyon-Saint-Exupery Airport (Lyon, France)
WX MAP UNAVAILABLENearest METAR:
LFLL 240500Z 18003KT 0600 R35L/0800U R17R/P2000 R35R/0800U R17L/2000N FZFG BKN001 BKN010 M01/M01 Q1030 TEMPO 0400 FZFG VV///
Lyon FIS Lyon-Bron Airport (Bron, France)
WX MAP UNAVAILABLENearest METAR:
LFLY 240500Z AUTO 15002KT 5000 BR NSC M01/M02 Q1031 TEMPO 0400 FZFG VV///
LKTB Gnd/Twr/Radar Brno-Turany Airport (Brno, Czech Republic)
WX MAP UNAVAILABLENearest METAR:
LKTB 240500Z 07007KT 9999 -SN OVC022 M01/M02 Q1033 NOSIG
LROP Twr/App/Radar Otopeni International Airport (Bucharest, Romania)
WX MAP UNAVAILABLENearest METAR:
LROP 240500Z 02006KT 7000 -SN BKN032 M05/M10 Q1030 NOSIG
LUKK Air to Air Chisinau International Airport (Chisinau, Moldova)
WX MAP UNAVAILABLENearest METAR:
LUKK 240530Z 35014KT 9999 -SN FEW023 SCT030 BKN047 M04/M07 Q1029 NOSIG
MMMY Tower/Approach General Mariano Escobedo International Airport (Monterrey, Mexico)
WX MAP UNAVAILABLENearest METAR:
MMMY 240440Z 13003KT 1SM BR BKN003 OVC005 08/08 A3007 RMK 60015 8/7// DZ INTMT RTS
PABE ATIS Bethel Airport (Bethel, US-AK)
WX MAP UNAVAILABLENearest METAR:
PABE 240453Z 07012KT 9SM -SN OVC030 02/00 A2913 RMK AO2 SLP866 P0004 T00170000
PADQ Gnd/Twr/ZAN Kodiak Airport (Kodiak, US-AK)
padqNearest METAR:
PADQ 240453Z 12023G32KT 8SM -RA OVC011 05/02 A2961 RMK AO2 PK WND 12033/0442 RAB27 SLP027 P0000 T00500022 $
UKKM Tower Antonov-2 International Airport (Gostomel, Ukraine)
WX MAP UNAVAILABLENearest METAR:
UKKM 240500Z AUTO 33005MPS 9999 -SN ///005/// M10/M12 Q1032
URMT Twr/App/Control Stavropol Shpakovskoye Airport (Stavropol, Russia)
WX MAP UNAVAILABLENearest METAR:
URMT 240500Z 09004MPS 0100 R07/M0200N -FZDZ FZFG VV002 M01/M01 Q1011 R07/250055 NOSIG RMK QBB060 OBST OBSC QFE719
URSS Gnd/Twr/App Sochi International Airport (Sochi, Russia)
WX MAP UNAVAILABLENearest METAR:
URSS 240500Z 15005MPS 9999 -SHRA BKN022CB 06/03 Q1014 WS ALL RWY R02/220355 R06/220258 TEMPO VRB09G14MPS 0800 +TSRAGS BKN006 OVC020CB RMK R06/16004G07MPS MT OBSC QFE759
UUEE Twr/App/Radar Sheremetyevo Airport (Moscow, Russia)
WX MAP UNAVAILABLENearest METAR:
UUEE 240500Z 29003MPS 260V320 9999 OVC007 M07/M09 Q1034 R06R/520235 R06C/520226 R06L/520235 NOSIG